createdAt,value
2018-11-10T00:00:01.959Z,9.50
2018-11-10T00:02:29.796Z,9.40
2018-11-10T00:04:57.588Z,9.40
2018-11-10T00:07:27.500Z,9.30
2018-11-10T00:09:55.359Z,9.30
2018-11-10T00:12:25.453Z,9.20
2018-11-10T00:14:53.265Z,9.20
2018-11-10T00:17:21.184Z,9.20
2018-11-10T00:19:49.056Z,9.20
2018-11-10T00:22:17.002Z,9.30
2018-11-10T00:24:44.903Z,9.30
2018-11-10T00:27:12.744Z,9.20
2018-11-10T00:29:40.677Z,9.30
2018-11-10T00:32:08.465Z,9.10
2018-11-10T00:34:36.455Z,9.00
2018-11-10T00:37:18.467Z,9.00
2018-11-10T00:39:46.428Z,8.90
2018-11-10T00:42:14.305Z,9.10
2018-11-10T00:44:43.581Z,9.10
2018-11-10T00:47:13.654Z,9.00
2018-11-10T00:49:43.571Z,8.90
2018-11-10T00:52:11.418Z,8.90
2018-11-10T00:54:39.256Z,8.90
2018-11-10T00:57:07.610Z,8.90
2018-11-10T00:59:35.766Z,8.90
2018-11-10T01:02:05.365Z,8.90
2018-11-10T01:04:33.662Z,8.90
2018-11-10T01:07:01.901Z,8.80
2018-11-10T01:12:07.179Z,8.80
2018-11-10T01:14:36.100Z,8.70
2018-11-10T01:17:03.958Z,8.80
2018-11-10T01:19:33.070Z,8.80
2018-11-10T01:22:01.335Z,8.80
2018-11-10T01:24:29.806Z,8.80
2018-11-10T01:26:57.586Z,8.90
2018-11-10T01:29:25.405Z,8.90
2018-11-10T01:31:53.177Z,8.90
2018-11-10T01:34:21.049Z,8.90
2018-11-10T01:36:48.900Z,8.90
2018-11-10T01:39:16.713Z,8.90
2018-11-10T01:41:44.567Z,8.80
2018-11-10T01:44:12.412Z,8.80
2018-11-10T01:46:40.230Z,8.80
2018-11-10T01:49:08.010Z,8.70
2018-11-10T01:51:35.776Z,8.60
2018-11-10T01:54:03.583Z,8.50
2018-11-10T01:56:31.369Z,8.40
2018-11-10T01:58:59.137Z,8.40
2018-11-10T02:01:26.936Z,8.40
2018-11-10T02:03:54.775Z,8.40
2018-11-10T02:06:22.759Z,8.40
2018-11-10T02:08:50.665Z,8.40
2018-11-10T02:11:18.482Z,8.40
2018-11-10T02:13:46.462Z,8.40
2018-11-10T02:16:14.293Z,8.60
2018-11-10T02:18:42.146Z,8.60
2018-11-10T02:21:10.056Z,8.60
2018-11-10T02:23:37.949Z,8.50
2018-11-10T02:26:05.793Z,8.50
2018-11-10T02:28:33.873Z,8.50
2018-11-10T02:31:02.685Z,8.40
2018-11-10T02:33:30.466Z,8.40
2018-11-10T02:35:58.532Z,8.40
2018-11-10T02:38:26.377Z,8.30
2018-11-10T02:40:54.109Z,8.30
2018-11-10T02:43:21.878Z,8.30
2018-11-10T02:45:49.648Z,8.30
2018-11-10T02:48:17.462Z,8.30
2018-11-10T02:50:46.150Z,8.30
2018-11-10T02:53:13.948Z,8.30
2018-11-10T02:55:41.848Z,8.30
2018-11-10T02:58:09.628Z,8.40
2018-11-10T03:00:37.411Z,8.30
2018-11-10T03:03:05.293Z,8.40
2018-11-10T03:05:33.225Z,8.30
2018-11-10T03:08:01.023Z,8.30
2018-11-10T03:10:28.807Z,8.30
2018-11-10T03:12:56.639Z,8.40
2018-11-10T03:15:24.433Z,8.30
2018-11-10T03:17:52.188Z,8.30
2018-11-10T03:20:20.104Z,8.40
2018-11-10T03:22:47.880Z,8.30
2018-11-10T03:25:15.696Z,8.30
2018-11-10T03:27:43.530Z,8.20
2018-11-10T03:30:11.420Z,8.20
2018-11-10T03:32:39.261Z,8.20
2018-11-10T03:35:08.193Z,8.20
2018-11-10T03:37:36.040Z,8.20
2018-11-10T03:40:04.705Z,8.30
2018-11-10T03:42:32.741Z,8.20
2018-11-10T03:45:00.641Z,8.20
2018-11-10T03:47:28.433Z,8.20
2018-11-10T03:49:56.241Z,8.20
2018-11-10T03:52:24.029Z,8.20
2018-11-10T03:54:51.801Z,8.10
2018-11-10T03:57:19.591Z,8.20
2018-11-10T03:59:47.369Z,8.20
2018-11-10T04:02:15.878Z,8.10
2018-11-10T04:04:43.668Z,8.10
2018-11-10T04:07:11.509Z,8.00
2018-11-10T04:09:39.352Z,8.00
2018-11-10T04:12:07.111Z,8.00
2018-11-10T04:14:35.532Z,8.00
2018-11-10T04:17:03.345Z,7.90
2018-11-10T04:19:31.113Z,8.00
2018-11-10T04:21:58.969Z,8.00
2018-11-10T04:24:26.772Z,8.00
2018-11-10T04:26:54.548Z,7.90
2018-11-10T04:29:22.669Z,7.90
2018-11-10T04:31:50.460Z,7.90
2018-11-10T04:34:18.249Z,7.90
2018-11-10T04:36:46.084Z,7.90
2018-11-10T04:39:13.840Z,7.90
2018-11-10T04:41:42.815Z,7.80
2018-11-10T04:44:10.612Z,7.80
2018-11-10T04:46:38.365Z,7.70
2018-11-10T04:49:06.244Z,7.70
2018-11-10T04:51:34.112Z,7.70
2018-11-10T04:54:01.901Z,7.70
2018-11-10T04:56:30.181Z,7.70
2018-11-10T04:58:57.955Z,7.70
2018-11-10T05:01:25.743Z,7.70
2018-11-10T05:03:54.935Z,7.70
2018-11-10T05:06:22.931Z,7.50
2018-11-10T05:08:50.697Z,7.50
2018-11-10T05:11:18.488Z,7.50
2018-11-10T05:13:46.938Z,7.40
2018-11-10T05:16:14.716Z,7.40
2018-11-10T05:18:42.526Z,7.40
2018-11-10T05:21:10.464Z,7.50
2018-11-10T05:23:38.271Z,7.40
2018-11-10T05:26:06.239Z,7.40
2018-11-10T05:28:34.296Z,7.40
2018-11-10T05:31:02.506Z,7.40
2018-11-10T05:33:30.273Z,7.40
2018-11-10T05:35:58.053Z,7.30
2018-11-10T05:38:25.818Z,7.40
2018-11-10T05:40:53.672Z,7.40
2018-11-10T05:43:21.497Z,7.50
2018-11-10T05:45:49.301Z,7.50
2018-11-10T05:48:17.092Z,7.40
2018-11-10T05:50:44.912Z,7.40
2018-11-10T05:53:12.712Z,7.40
2018-11-10T05:55:40.655Z,7.30
2018-11-10T05:58:08.540Z,7.30
2018-11-10T06:00:36.545Z,7.30
2018-11-10T06:03:04.503Z,7.20
2018-11-10T06:05:32.333Z,7.30
2018-11-10T06:08:00.138Z,7.80
2018-11-10T06:10:28.069Z,7.30
2018-11-10T06:12:55.769Z,7.30
2018-11-10T06:15:23.609Z,7.30
2018-11-10T06:17:51.449Z,7.20
2018-11-10T06:20:19.226Z,7.20
2018-11-10T06:22:47.064Z,7.30
2018-11-10T06:25:14.829Z,7.30
2018-11-10T06:27:42.605Z,7.20
2018-11-10T06:30:11.726Z,7.30
2018-11-10T06:32:39.638Z,7.20
2018-11-10T06:35:08.117Z,7.40
2018-11-10T06:37:36.005Z,7.30
2018-11-10T06:40:04.423Z,7.40
2018-11-10T06:42:32.217Z,7.30
2018-11-10T06:45:00.028Z,7.30
2018-11-10T06:47:27.822Z,7.30
2018-11-10T06:49:55.635Z,7.50
2018-11-10T06:52:23.424Z,7.50
2018-11-10T06:54:51.189Z,7.40
2018-11-10T06:57:18.985Z,7.40
2018-11-10T06:59:46.792Z,7.40
2018-11-10T07:02:17.216Z,7.40
2018-11-10T07:04:44.998Z,7.50
2018-11-10T07:07:13.258Z,7.50
2018-11-10T07:09:41.049Z,7.50
2018-11-10T07:12:08.830Z,7.50
2018-11-10T07:14:38.006Z,7.40
2018-11-10T07:17:05.817Z,7.50
2018-11-10T07:19:33.576Z,7.60
2018-11-10T07:22:01.409Z,7.50
2018-11-10T07:24:29.219Z,7.60
2018-11-10T07:26:57.005Z,7.50
2018-11-10T07:29:24.895Z,7.50
2018-11-10T07:31:52.723Z,7.50
2018-11-10T07:34:20.754Z,7.40
2018-11-10T07:36:48.545Z,7.60
2018-11-10T07:39:16.345Z,7.60
2018-11-10T07:41:44.129Z,7.70
2018-11-10T07:44:12.060Z,7.70
2018-11-10T07:46:39.876Z,7.80
2018-11-10T07:49:07.718Z,7.80
2018-11-10T07:51:35.789Z,7.90
2018-11-10T07:54:03.589Z,8.10
2018-11-10T07:56:31.381Z,8.10
2018-11-10T07:58:59.162Z,8.20
2018-11-10T08:01:26.961Z,8.30
2018-11-10T08:03:54.776Z,8.40
2018-11-10T08:06:22.537Z,8.50
2018-11-10T08:08:50.346Z,8.60
2018-11-10T08:11:19.464Z,8.80
2018-11-10T08:13:47.580Z,8.80
2018-11-10T08:16:15.381Z,8.90
2018-11-10T08:18:43.298Z,9.00
2018-11-10T08:21:11.045Z,9.10
2018-11-10T08:23:38.936Z,9.20
2018-11-10T08:26:07.177Z,9.20
2018-11-10T08:28:35.035Z,9.40
2018-11-10T08:31:02.824Z,9.70
2018-11-10T08:33:30.617Z,9.60
2018-11-10T08:35:58.641Z,9.80
2018-11-10T08:38:26.443Z,9.90
2018-11-10T08:40:54.233Z,10.10
2018-11-10T08:43:22.023Z,10.20
2018-11-10T08:45:49.792Z,10.30
2018-11-10T08:48:17.608Z,10.50
2018-11-10T08:50:45.373Z,10.60
2018-11-10T08:53:13.223Z,10.70
2018-11-10T08:55:41.108Z,10.80
2018-11-10T08:58:08.990Z,10.90
2018-11-10T09:00:37.009Z,11.10
2018-11-10T09:03:05.340Z,11.20
2018-11-10T09:05:33.117Z,11.40
2018-11-10T09:08:00.926Z,11.50
2018-11-10T09:10:28.781Z,11.60
2018-11-10T09:12:56.799Z,11.60
2018-11-10T09:15:24.699Z,11.70
2018-11-10T09:17:52.597Z,11.60
2018-11-10T09:20:20.647Z,11.80
2018-11-10T09:22:48.859Z,11.80
2018-11-10T09:25:17.893Z,11.80
2018-11-10T09:27:45.945Z,11.90
2018-11-10T09:30:15.228Z,11.90
2018-11-10T09:32:44.654Z,12.10
2018-11-10T09:35:13.665Z,12.10
2018-11-10T09:37:41.856Z,12.10
2018-11-10T09:40:14.485Z,12.10
2018-11-10T09:42:43.145Z,12.10
2018-11-10T09:45:12.736Z,12.10
2018-11-10T09:47:41.349Z,12.10
2018-11-10T09:50:13.297Z,12.20
2018-11-10T09:52:42.227Z,12.00
2018-11-10T09:55:11.183Z,12.00
2018-11-10T09:57:39.461Z,11.90
2018-11-10T10:00:10.937Z,11.90
2018-11-10T10:02:39.930Z,11.90
2018-11-10T10:05:08.891Z,11.80
2018-11-10T10:07:37.668Z,11.70
2018-11-10T10:10:07.251Z,11.70
2018-11-10T10:12:35.325Z,11.50
2018-11-10T10:15:03.511Z,11.60
2018-11-10T10:17:31.629Z,11.70
2018-11-10T10:19:59.612Z,11.60
2018-11-10T10:22:27.616Z,11.50
2018-11-10T10:24:55.524Z,11.40
2018-11-10T10:27:23.450Z,11.40
2018-11-10T10:29:51.432Z,11.30
2018-11-10T10:32:19.511Z,11.30
2018-11-10T10:34:47.582Z,11.40
2018-11-10T10:37:15.461Z,11.40
2018-11-10T10:39:43.499Z,11.40
2018-11-10T10:42:11.763Z,11.40
2018-11-10T10:44:40.872Z,11.40
2018-11-10T10:47:09.373Z,11.30
2018-11-10T10:49:37.629Z,11.30
2018-11-10T10:52:05.569Z,11.40
2018-11-10T10:54:33.653Z,11.40
2018-11-10T10:57:01.707Z,11.40
2018-11-10T10:59:29.614Z,11.50
2018-11-10T11:02:03.170Z,11.50
2018-11-10T11:04:37.528Z,11.50
2018-11-10T11:07:05.752Z,11.50
2018-11-10T11:09:34.337Z,11.50
2018-11-10T11:12:02.372Z,11.50
2018-11-10T11:14:30.463Z,11.50
2018-11-10T11:16:58.710Z,11.50
2018-11-10T11:19:26.696Z,11.50
2018-11-10T11:21:55.032Z,11.50
2018-11-10T11:24:23.142Z,11.50
2018-11-10T11:26:52.033Z,11.50
2018-11-10T11:29:22.489Z,11.50
2018-11-10T11:31:50.675Z,11.60
2018-11-10T11:34:19.692Z,11.20
2018-11-10T11:36:48.132Z,11.60
2018-11-10T11:39:16.200Z,11.60
2018-11-10T11:41:44.221Z,11.60
2018-11-10T11:44:12.417Z,11.70
2018-11-10T11:46:40.542Z,11.80
2018-11-10T11:49:09.047Z,11.20
2018-11-10T11:51:37.511Z,11.40
2018-11-10T11:54:06.377Z,11.90
2018-11-10T11:56:35.195Z,12.00
2018-11-10T11:59:03.334Z,12.00
2018-11-10T12:01:31.492Z,12.10
2018-11-10T12:03:59.716Z,12.20
2018-11-10T12:06:27.847Z,12.40
2018-11-10T12:08:56.066Z,12.50
2018-11-10T12:11:24.141Z,12.60
2018-11-10T12:13:52.388Z,12.70
2018-11-10T12:16:27.180Z,12.70
2018-11-10T12:18:48.703Z,12.80
2018-11-10T12:21:17.037Z,12.90
2018-11-10T12:23:45.206Z,13.00
2018-11-10T12:26:13.461Z,13.10
2018-11-10T12:28:41.562Z,13.50
2018-11-10T12:31:09.845Z,14.30
2018-11-10T12:33:37.982Z,15.40
2018-11-10T12:36:06.820Z,16.40
2018-11-10T12:38:35.216Z,17.40
2018-11-10T12:41:07.556Z,17.70
2018-11-10T12:43:35.733Z,18.90
2018-11-10T12:46:05.253Z,19.60
2018-11-10T12:48:33.953Z,20.30
2018-11-10T12:51:02.272Z,21.10
2018-11-10T12:53:30.521Z,21.70
2018-11-10T12:55:58.677Z,22.10
2018-11-10T12:58:26.849Z,22.30
2018-11-10T13:00:54.980Z,22.20
2018-11-10T13:03:23.151Z,22.10
2018-11-10T13:05:51.508Z,22.30
2018-11-10T13:08:20.015Z,22.50
2018-11-10T13:10:48.404Z,22.90
2018-11-10T13:13:17.045Z,23.30
2018-11-10T13:15:45.362Z,23.70
2018-11-10T13:18:15.935Z,24.00
2018-11-10T13:20:43.965Z,24.10
2018-11-10T13:23:12.326Z,24.10
2018-11-10T13:25:41.006Z,24.10
2018-11-10T13:28:09.385Z,24.40
2018-11-10T13:30:37.578Z,24.60
2018-11-10T13:33:06.060Z,25.10
2018-11-10T13:35:36.624Z,25.50
2018-11-10T13:38:05.362Z,25.90
2018-11-10T13:40:33.552Z,26.40
2018-11-10T13:43:01.717Z,26.70
2018-11-10T13:45:29.973Z,26.80
2018-11-10T13:47:58.138Z,26.70
2018-11-10T13:50:26.344Z,26.80
2018-11-10T13:52:54.965Z,27.00
2018-11-10T13:55:22.796Z,27.00
2018-11-10T13:57:50.907Z,27.10
2018-11-10T14:00:19.161Z,27.20
2018-11-10T14:02:47.405Z,27.30
2018-11-10T14:05:15.669Z,27.30
2018-11-10T14:07:43.935Z,27.40
2018-11-10T14:10:13.904Z,27.50
2018-11-10T14:12:43.359Z,27.50
2018-11-10T14:15:12.180Z,27.50
2018-11-10T14:17:41.322Z,27.90
2018-11-10T14:20:16.559Z,27.50
2018-11-10T14:22:45.585Z,27.50
2018-11-10T14:25:14.665Z,27.40
2018-11-10T14:27:43.499Z,27.10
2018-11-10T14:30:13.443Z,26.70
2018-11-10T14:32:42.245Z,26.10
2018-11-10T14:35:11.202Z,25.40
2018-11-10T14:37:39.497Z,24.60
2018-11-10T14:40:10.091Z,24.30
2018-11-10T14:42:39.204Z,23.80
2018-11-10T14:45:08.672Z,23.70
2018-11-10T14:47:36.833Z,23.50
2018-11-10T14:50:06.913Z,23.40
2018-11-10T14:52:35.180Z,23.20
2018-11-10T14:55:03.314Z,22.90
2018-11-10T14:57:31.499Z,22.50
2018-11-10T14:59:59.556Z,22.00
2018-11-10T15:02:28.092Z,21.50
2018-11-10T15:04:56.315Z,21.00
2018-11-10T15:07:24.472Z,20.60
2018-11-10T15:09:52.676Z,20.70
2018-11-10T15:12:20.984Z,19.40
2018-11-10T15:14:49.951Z,18.90
2018-11-10T15:17:18.063Z,18.30
2018-11-10T15:19:46.105Z,17.80
2018-11-10T15:22:14.310Z,17.30
2018-11-10T15:24:42.431Z,16.70
2018-11-10T15:27:11.104Z,16.40
2018-11-10T15:29:39.116Z,16.00
2018-11-10T15:32:07.485Z,15.70
2018-11-10T15:34:35.819Z,15.40
2018-11-10T15:37:03.978Z,15.10
2018-11-10T15:39:32.167Z,14.70
2018-11-10T15:42:00.368Z,14.40
2018-11-10T15:44:28.719Z,14.20
2018-11-10T15:46:57.017Z,13.90
2018-11-10T15:49:25.173Z,13.70
2018-11-10T15:51:53.291Z,13.50
2018-11-10T15:54:21.675Z,13.10
2018-11-10T15:56:49.821Z,13.00
2018-11-10T15:59:18.079Z,12.80
2018-11-10T16:01:46.371Z,12.70
2018-11-10T16:04:14.584Z,12.20
2018-11-10T16:06:42.835Z,12.40
2018-11-10T16:09:12.508Z,12.20
2018-11-10T16:11:40.960Z,12.20
2018-11-10T16:14:09.095Z,12.00
2018-11-10T16:16:37.131Z,11.90
2018-11-10T16:19:05.267Z,11.70
2018-11-10T16:21:33.402Z,11.80
2018-11-10T16:24:01.608Z,11.70
2018-11-10T16:26:29.908Z,11.70
2018-11-10T16:28:58.392Z,11.60
2018-11-10T16:31:27.456Z,11.60
2018-11-10T16:33:55.670Z,11.60
2018-11-10T16:36:24.601Z,11.50
2018-11-10T16:38:52.901Z,11.50
2018-11-10T16:41:22.455Z,11.50
2018-11-10T16:43:50.642Z,11.40
2018-11-10T16:46:18.823Z,11.40
2018-11-10T16:48:46.845Z,11.40
2018-11-10T16:51:15.146Z,11.40
2018-11-10T16:53:43.179Z,11.40
2018-11-10T16:56:11.815Z,11.40
2018-11-10T16:58:40.255Z,11.40
2018-11-10T17:01:08.570Z,11.40
2018-11-10T17:03:36.690Z,11.30
2018-11-10T17:06:04.806Z,11.30
2018-11-10T17:08:32.923Z,11.30
2018-11-10T17:11:00.888Z,11.30
2018-11-10T17:13:29.099Z,11.30
2018-11-10T17:15:57.173Z,11.40
2018-11-10T17:18:25.398Z,11.40
2018-11-10T17:20:53.415Z,11.40
2018-11-10T17:23:21.399Z,11.40
2018-11-10T17:25:49.377Z,11.40
2018-11-10T17:28:17.378Z,11.10
2018-11-10T17:30:45.514Z,11.40
2018-11-10T17:33:13.936Z,11.40
2018-11-10T17:35:42.394Z,11.40
2018-11-10T17:38:10.895Z,11.40
2018-11-10T17:40:39.078Z,11.40
2018-11-10T17:43:07.231Z,11.40
2018-11-10T17:45:35.734Z,11.40
2018-11-10T17:48:04.161Z,11.40
2018-11-10T17:50:32.454Z,11.40
2018-11-10T17:53:00.570Z,11.30
2018-11-10T17:55:28.738Z,11.30
2018-11-10T17:57:57.056Z,10.70
2018-11-10T18:00:25.161Z,11.10
2018-11-10T18:02:53.953Z,11.00
2018-11-10T18:05:22.335Z,10.70
2018-11-10T18:07:50.608Z,10.70
2018-11-10T18:10:18.916Z,10.70
2018-11-10T18:12:47.214Z,10.60
2018-11-10T18:15:15.593Z,10.40
2018-11-10T18:17:44.056Z,10.30
2018-11-10T18:20:13.629Z,10.20
2018-11-10T18:22:42.449Z,10.20
2018-11-10T18:25:10.652Z,10.10
2018-11-10T18:27:38.744Z,10.00
2018-11-10T18:30:08.372Z,10.00
2018-11-10T18:32:36.575Z,10.00
2018-11-10T18:35:05.441Z,10.00
2018-11-10T18:37:33.542Z,10.00
2018-11-10T18:40:01.839Z,10.00
2018-11-10T18:42:29.899Z,9.90
2018-11-10T18:44:58.176Z,9.90
2018-11-10T18:47:26.759Z,9.90
2018-11-10T18:49:54.917Z,9.90
2018-11-10T18:52:23.260Z,9.90
2018-11-10T18:54:51.604Z,9.80
2018-11-10T18:57:21.980Z,9.80
2018-11-10T18:59:49.937Z,8.80
2018-11-10T19:02:17.983Z,9.70
2018-11-10T19:04:46.059Z,9.70
2018-11-10T19:07:14.497Z,9.60
2018-11-10T19:09:42.931Z,9.60
2018-11-10T19:12:11.293Z,9.60
2018-11-10T19:14:39.550Z,9.60
2018-11-10T19:17:07.650Z,9.60
2018-11-10T19:19:35.719Z,9.60
2018-11-10T19:22:04.462Z,9.50
2018-11-10T19:24:32.780Z,9.50
2018-11-10T19:27:01.085Z,9.50
2018-11-10T19:29:29.212Z,9.60
2018-11-10T19:31:57.855Z,9.60
2018-11-10T19:34:26.014Z,9.60
2018-11-10T19:36:54.145Z,9.60
2018-11-10T19:39:22.270Z,9.70
2018-11-10T19:41:50.327Z,9.70
2018-11-10T19:44:18.369Z,9.70
2018-11-10T19:46:46.502Z,9.70
2018-11-10T19:49:14.571Z,9.70
2018-11-10T19:51:43.199Z,9.80
2018-11-10T19:54:11.630Z,9.80
2018-11-10T19:56:39.892Z,9.80
2018-11-10T19:59:08.134Z,9.80
2018-11-10T20:01:36.436Z,9.70
2018-11-10T20:04:06.783Z,9.70
2018-11-10T20:06:35.052Z,9.70
2018-11-10T20:09:03.588Z,9.70
2018-11-10T20:11:31.775Z,9.60
2018-11-10T20:13:59.923Z,9.70
2018-11-10T20:16:27.980Z,9.70
2018-11-10T20:18:56.117Z,9.70
2018-11-10T20:21:24.381Z,9.90
2018-11-10T20:23:52.553Z,9.70
2018-11-10T20:26:20.815Z,9.90
2018-11-10T20:28:48.904Z,9.80
2018-11-10T20:31:17.286Z,9.60
2018-11-10T20:33:45.535Z,9.90
2018-11-10T20:36:13.864Z,9.80
2018-11-10T20:38:42.391Z,9.80
2018-11-10T20:41:10.745Z,9.70
2018-11-10T20:43:39.077Z,9.70
2018-11-10T20:46:07.717Z,9.80
2018-11-10T20:48:35.805Z,9.80
2018-11-10T20:51:04.114Z,9.70
2018-11-10T20:53:32.463Z,9.70
2018-11-10T20:56:00.559Z,9.70
2018-11-10T20:58:28.591Z,9.60
2018-11-10T21:00:56.548Z,9.60
2018-11-10T21:03:25.233Z,9.60
2018-11-10T21:05:53.322Z,9.60
2018-11-10T21:08:21.466Z,9.50
2018-11-10T21:10:49.634Z,9.50
2018-11-10T21:13:17.709Z,9.50
2018-11-10T21:15:45.840Z,9.50
2018-11-10T21:18:13.847Z,9.50
2018-11-10T21:20:41.994Z,9.50
2018-11-10T21:23:10.140Z,9.50
2018-11-10T21:25:38.209Z,9.50
2018-11-10T21:28:06.714Z,9.50
2018-11-10T21:30:35.354Z,9.50
2018-11-10T21:33:03.736Z,9.40
2018-11-10T21:35:32.186Z,9.50
2018-11-10T21:38:00.437Z,9.50
2018-11-10T21:40:28.664Z,9.50
2018-11-10T21:42:56.976Z,9.60
2018-11-10T21:45:25.098Z,9.50
2018-11-10T21:47:53.269Z,9.50
2018-11-10T21:50:21.377Z,9.50
2018-11-10T21:52:49.394Z,9.60
2018-11-10T21:55:18.664Z,9.90
2018-11-10T21:57:47.177Z,9.80
2018-11-10T22:00:17.116Z,9.70
2018-11-10T22:02:45.760Z,9.70
2018-11-10T22:05:14.307Z,9.70
2018-11-10T22:07:42.483Z,9.60
2018-11-10T22:10:12.321Z,9.50
2018-11-10T22:12:40.746Z,9.50
2018-11-10T22:15:11.997Z,9.70
2018-11-10T22:17:41.133Z,9.40
2018-11-10T22:20:10.870Z,9.40
2018-11-10T22:22:39.279Z,9.40
2018-11-10T22:25:08.332Z,9.40
2018-11-10T22:27:36.596Z,9.40
2018-11-10T22:30:05.934Z,9.40
2018-11-10T22:32:34.334Z,9.40
2018-11-10T22:35:03.053Z,9.50
2018-11-10T22:37:31.219Z,9.40
2018-11-10T22:39:59.539Z,9.40
2018-11-10T22:42:29.284Z,9.50
2018-11-10T22:44:58.157Z,9.60
2018-11-10T22:47:26.815Z,9.70
2018-11-10T22:49:56.368Z,9.70
2018-11-10T22:52:25.550Z,9.80
2018-11-10T22:54:55.548Z,9.90
2018-11-10T22:57:25.999Z,9.90
2018-11-10T22:59:55.062Z,10.80
2018-11-10T23:02:23.911Z,9.60
2018-11-10T23:04:52.597Z,10.10
2018-11-10T23:07:21.860Z,10.10
2018-11-10T23:09:52.394Z,10.20
2018-11-10T23:12:20.345Z,10.10
2018-11-10T23:14:49.660Z,10.20
2018-11-10T23:17:23.100Z,10.30
2018-11-10T23:19:51.120Z,10.20
2018-11-10T23:22:19.062Z,10.30
2018-11-10T23:24:46.910Z,10.30
2018-11-10T23:27:15.186Z,10.30
2018-11-10T23:29:43.138Z,10.30
2018-11-10T23:32:10.998Z,10.20
2018-11-10T23:34:38.900Z,10.20
2018-11-10T23:37:06.817Z,10.20
2018-11-10T23:39:34.598Z,10.20
2018-11-10T23:42:03.605Z,10.10
2018-11-10T23:44:31.524Z,10.20
2018-11-10T23:46:59.340Z,10.30
2018-11-10T23:49:27.175Z,10.30
2018-11-10T23:51:54.988Z,10.20
2018-11-10T23:54:22.801Z,10.20
2018-11-10T23:56:50.699Z,10.20
2018-11-10T23:59:18.493Z,10.20
